createdAt,value
2019-04-29T00:00:54.011Z,31.00
2019-04-29T00:06:14.811Z,30.87
2019-04-29T00:17:50.158Z,32.77
2019-04-29T00:22:51.571Z,28.50
2019-04-29T00:27:52.866Z,36.60
2019-04-29T00:32:58.222Z,31.77
2019-04-29T00:38:01.658Z,39.20
2019-04-29T00:43:14.113Z,30.43
2019-04-29T00:48:18.663Z,34.77
2019-04-29T00:53:41.085Z,32.83
2019-04-29T00:58:44.562Z,41.13
2019-04-29T01:03:48.372Z,30.93
2019-04-29T01:08:53.030Z,37.67
2019-04-29T01:13:54.356Z,33.53
2019-04-29T01:19:03.879Z,29.87
2019-04-29T01:24:08.512Z,33.23
2019-04-29T01:29:15.589Z,30.43
2019-04-29T01:34:24.189Z,34.60
2019-04-29T01:39:28.737Z,37.23
2019-04-29T01:44:36.478Z,41.27
2019-04-29T01:49:41.074Z,43.17
2019-04-29T01:55:09.591Z,41.40
2019-04-29T02:00:12.450Z,31.53
2019-04-29T02:05:17.300Z,31.33
2019-04-29T02:10:48.839Z,36.97
2019-04-29T02:15:51.727Z,45.30
2019-04-29T02:20:53.097Z,43.10
2019-04-29T02:26:00.638Z,41.43
2019-04-29T02:31:23.803Z,30.17
2019-04-29T02:36:29.367Z,31.13
2019-04-29T02:41:33.401Z,35.10
2019-04-29T02:46:37.860Z,37.97
2019-04-29T02:51:54.393Z,26.03
2019-04-29T02:57:09.777Z,27.97
2019-04-29T03:02:13.041Z,42.43
2019-04-29T03:07:14.442Z,40.47
2019-04-29T03:12:15.858Z,43.13
2019-04-29T03:17:45.316Z,36.50
2019-04-29T03:22:53.664Z,26.33
2019-04-29T03:28:14.254Z,32.20
2019-04-29T03:33:17.792Z,28.07
2019-04-29T03:38:25.246Z,26.00
2019-04-29T03:43:29.991Z,23.47
2019-04-29T03:48:48.538Z,32.03
2019-04-29T03:53:53.173Z,32.80
2019-04-29T03:58:54.502Z,27.67
2019-04-29T04:04:19.577Z,28.73
2019-04-29T04:09:26.105Z,31.60
2019-04-29T04:14:36.442Z,30.40
2019-04-29T04:19:37.974Z,30.17
2019-04-29T04:24:43.779Z,23.47
2019-04-29T04:29:45.120Z,28.33
2019-04-29T04:35:08.483Z,31.57
2019-04-29T04:40:13.301Z,28.23
2019-04-29T04:45:18.018Z,28.50
2019-04-29T04:50:37.518Z,30.03
2019-04-29T04:55:44.047Z,30.70
2019-04-29T05:00:53.450Z,38.13
2019-04-29T05:06:21.801Z,38.87
2019-04-29T05:11:53.437Z,41.10
2019-04-29T05:16:58.140Z,33.43
2019-04-29T05:21:59.489Z,37.23
2019-04-29T05:27:09.982Z,39.53
2019-04-29T05:32:12.486Z,30.03
2019-04-29T05:37:36.189Z,35.93
2019-04-29T05:42:43.894Z,30.97
2019-04-29T05:47:47.250Z,30.47
2019-04-29T05:53:11.427Z,31.73
2019-04-29T05:58:50.192Z,32.57
2019-04-29T06:04:06.842Z,41.17
2019-04-29T06:09:22.432Z,29.60
2019-04-29T06:14:33.102Z,28.87
2019-04-29T06:19:39.440Z,29.93
2019-04-29T06:25:04.631Z,26.87
2019-04-29T06:30:06.631Z,25.87
2019-04-29T06:35:57.708Z,26.07
2019-04-29T06:41:05.582Z,28.40
2019-04-29T06:46:11.304Z,23.17
2019-04-29T06:51:15.829Z,27.93
2019-04-29T06:56:29.279Z,23.17
2019-04-29T07:01:43.034Z,28.83
2019-04-29T07:06:57.316Z,32.53
2019-04-29T07:12:01.595Z,30.57
2019-04-29T07:17:07.139Z,40.57
2019-04-29T07:22:14.854Z,33.20
2019-04-29T07:27:16.278Z,35.33
2019-04-29T07:32:42.254Z,37.53
2019-04-29T07:37:55.803Z,34.50
2019-04-29T07:43:02.833Z,39.47
2019-04-29T07:48:41.979Z,38.97
2019-04-29T07:54:05.476Z,49.70
2019-04-29T07:59:11.202Z,37.27
2019-04-29T08:04:15.416Z,34.30
2019-04-29T08:09:20.393Z,24.50
2019-04-29T08:14:44.988Z,27.53
2019-04-29T08:19:49.522Z,24.47
2019-04-29T08:24:54.147Z,22.97
2019-04-29T08:30:11.211Z,22.63
2019-04-29T08:35:16.455Z,21.37
2019-04-29T08:40:27.156Z,21.20
2019-04-29T08:45:34.683Z,20.13
2019-04-29T08:50:38.077Z,16.87
2019-04-29T08:55:54.934Z,20.17
2019-04-29T09:01:02.207Z,18.17
2019-04-29T09:06:10.026Z,20.57
2019-04-29T09:11:54.909Z,16.33
2019-04-29T09:17:06.099Z,12.73
2019-04-29T09:22:13.194Z,16.17
2019-04-29T09:27:20.643Z,12.40
2019-04-29T09:32:21.973Z,14.47
2019-04-29T09:37:26.510Z,14.80
2019-04-29T09:42:57.156Z,12.93
2019-04-29T09:48:06.777Z,15.93
2019-04-29T09:53:11.437Z,10.77
2019-04-29T09:58:21.328Z,7.53
2019-04-29T10:03:54.748Z,7.77
2019-04-29T10:09:39.939Z,11.50
2019-04-29T10:14:42.577Z,10.60
2019-04-29T10:19:45.843Z,9.23
2019-04-29T10:24:50.337Z,9.87
2019-04-29T10:29:55.303Z,10.00
2019-04-29T10:35:08.824Z,10.10
2019-04-29T10:40:32.644Z,12.47
2019-04-29T10:45:37.000Z,9.07
2019-04-29T10:50:47.160Z,7.77
2019-04-29T10:55:47.264Z,8.33
2019-04-29T11:01:24.436Z,9.87
2019-04-29T11:06:25.921Z,10.10
2019-04-29T11:11:34.951Z,8.60
2019-04-29T11:16:46.622Z,8.40
2019-04-29T11:21:46.532Z,7.87
2019-04-29T11:26:55.547Z,9.07
2019-04-29T11:31:58.898Z,8.13
2019-04-29T11:37:08.261Z,6.53
2019-04-29T11:42:09.901Z,8.10
2019-04-29T11:47:11.709Z,7.53
2019-04-29T11:52:13.378Z,8.10
2019-04-29T11:57:41.175Z,8.30
2019-04-29T12:03:01.890Z,6.40
2019-04-29T12:08:16.068Z,7.57
2019-04-29T12:13:30.363Z,5.90
2019-04-29T12:18:38.070Z,6.07
2019-04-29T12:23:40.208Z,5.73
2019-04-29T12:28:44.862Z,6.37
2019-04-29T12:33:51.215Z,8.23
2019-04-29T12:39:13.058Z,6.83
2019-04-29T12:44:17.570Z,6.00
2019-04-29T12:49:20.313Z,6.33
2019-04-29T12:54:27.931Z,6.27
2019-04-29T12:59:30.661Z,6.47
2019-04-29T13:04:50.163Z,7.50
2019-04-29T13:10:02.136Z,5.53
2019-04-29T13:15:13.846Z,8.63
2019-04-29T13:20:15.498Z,9.27
2019-04-29T13:25:20.875Z,5.87
2019-04-29T13:30:25.624Z,5.70
2019-04-29T13:35:28.252Z,6.63
2019-04-29T13:40:37.244Z,6.57
2019-04-29T13:45:46.031Z,4.13
2019-04-29T13:50:51.450Z,8.73
2019-04-29T13:56:10.497Z,7.03
2019-04-29T14:01:22.079Z,8.23
2019-04-29T14:06:20.164Z,8.27
2019-04-29T14:11:27.663Z,8.78
2019-04-29T14:16:48.753Z,12.07
2019-04-29T14:21:58.264Z,11.53
2019-04-29T14:27:25.531Z,10.90
2019-04-29T14:32:36.066Z,11.57
2019-04-29T14:37:34.366Z,7.80
2019-04-29T14:42:40.760Z,9.53
2019-04-29T14:48:04.830Z,9.20
2019-04-29T14:53:06.433Z,8.50
2019-04-29T14:58:09.993Z,11.27
2019-04-29T15:03:31.975Z,10.60
2019-04-29T15:08:38.165Z,11.53
2019-04-29T15:13:43.201Z,8.75
2019-04-29T15:18:50.064Z,10.18
2019-04-29T15:23:58.371Z,9.53
2019-04-29T15:29:03.355Z,11.07
2019-04-29T15:34:16.315Z,10.67
2019-04-29T15:39:19.940Z,10.17
2019-04-29T15:44:22.963Z,9.47
2019-04-29T15:49:26.534Z,11.47
2019-04-29T15:54:45.982Z,12.03
2019-04-29T15:59:58.894Z,14.67
2019-04-29T16:04:58.930Z,13.50
2019-04-29T16:10:20.474Z,14.53
2019-04-29T16:15:24.072Z,14.30
2019-04-29T16:20:28.692Z,14.47
2019-04-29T16:25:52.427Z,17.60
2019-04-29T16:30:59.173Z,15.83
2019-04-29T16:36:05.269Z,17.30
2019-04-29T16:41:26.953Z,17.93
2019-04-29T16:46:37.486Z,21.13
2019-04-29T16:51:36.977Z,20.67
2019-04-29T16:56:44.367Z,21.97
2019-04-29T17:01:46.290Z,23.13
2019-04-29T17:07:13.986Z,24.50
2019-04-29T17:12:15.435Z,23.40
2019-04-29T17:17:28.913Z,22.13
2019-04-29T17:22:28.719Z,21.47
2019-04-29T17:27:41.959Z,20.60
2019-04-29T17:32:52.755Z,23.17
2019-04-29T17:37:55.933Z,22.27
2019-04-29T17:43:06.038Z,20.17
2019-04-29T17:48:22.557Z,20.60
2019-04-29T17:53:32.206Z,18.43
2019-04-29T17:58:37.683Z,19.60
2019-04-29T18:03:59.546Z,17.60
2019-04-29T18:09:27.033Z,16.50
2019-04-29T18:14:37.806Z,16.10
2019-04-29T18:19:55.098Z,17.03
2019-04-29T18:25:02.118Z,17.37
2019-04-29T18:30:07.944Z,17.27
2019-04-29T18:35:22.787Z,18.57
2019-04-29T18:40:30.029Z,17.60
2019-04-29T18:45:39.513Z,16.30
2019-04-29T18:50:48.362Z,17.30
2019-04-29T18:56:05.234Z,14.70
2019-04-29T19:01:12.873Z,15.60
2019-04-29T19:06:15.106Z,12.67
2019-04-29T19:11:31.915Z,15.13
2019-04-29T19:16:27.982Z,15.10
2019-04-29T19:21:31.619Z,16.17
2019-04-29T19:26:35.316Z,13.63
2019-04-29T19:31:47.526Z,14.67
2019-04-29T19:36:45.011Z,14.00
2019-04-29T19:41:51.494Z,16.93
2019-04-29T19:47:00.460Z,13.73
2019-04-29T19:52:09.909Z,13.60
2019-04-29T19:57:20.616Z,14.70
2019-04-29T20:02:26.159Z,16.60
2019-04-29T20:07:28.672Z,13.50
2019-04-29T20:12:31.102Z,13.43
2019-04-29T20:17:45.773Z,13.03
2019-04-29T20:22:51.263Z,14.77
2019-04-29T20:28:04.784Z,12.70
2019-04-29T20:33:01.154Z,13.30
2019-04-29T20:38:05.691Z,13.87
2019-04-29T20:43:08.266Z,12.57
2019-04-29T20:48:11.174Z,15.17
2019-04-29T20:53:18.504Z,15.43
2019-04-29T20:58:23.442Z,18.53
2019-04-29T21:03:32.100Z,15.63
2019-04-29T21:08:51.127Z,14.73
2019-04-29T21:13:56.347Z,13.23
2019-04-29T21:19:08.849Z,15.00
2019-04-29T21:24:18.645Z,18.87
2019-04-29T21:29:19.526Z,16.43
2019-04-29T21:34:25.333Z,16.93
2019-04-29T21:39:49.713Z,18.97
2019-04-29T21:44:54.250Z,19.97
2019-04-29T21:49:58.810Z,17.00
2019-04-29T21:55:00.250Z,21.70
2019-04-29T22:00:05.667Z,21.70
2019-04-29T22:05:16.930Z,23.63
2019-04-29T22:10:29.928Z,18.13
2019-04-29T22:15:41.008Z,23.27
2019-04-29T22:20:42.237Z,20.50
2019-04-29T22:25:45.639Z,18.70
2019-04-29T22:30:54.762Z,21.57
2019-04-29T22:35:56.863Z,20.03
2019-04-29T22:41:11.765Z,23.43
2019-04-29T22:46:17.661Z,23.43
2019-04-29T22:51:19.201Z,22.10
2019-04-29T22:56:21.826Z,19.33
2019-04-29T23:01:26.345Z,23.27
2019-04-29T23:06:30.883Z,23.83
2019-04-29T23:11:34.753Z,28.43
2019-04-29T23:16:45.451Z,26.13
2019-04-29T23:21:48.783Z,25.90
2019-04-29T23:27:07.481Z,26.87
2019-04-29T23:32:10.076Z,30.30
2019-04-29T23:37:15.410Z,32.93
2019-04-29T23:42:16.906Z,28.80
2019-04-29T23:47:18.268Z,30.47
2019-04-29T23:52:23.275Z,31.30
2019-04-29T23:58:03.688Z,33.53
